createdAt,value
2023-02-16T00:01:45.719Z,91.30
2023-02-16T00:04:19.183Z,91.30
2023-02-16T00:06:47.066Z,91.30
2023-02-16T00:09:14.952Z,91.30
2023-02-16T00:12:00.823Z,91.30
2023-02-16T00:14:30.560Z,91.30
2023-02-16T00:17:00.259Z,91.40
2023-02-16T00:19:30.117Z,91.40
2023-02-16T00:21:59.855Z,91.40
2023-02-16T00:24:29.735Z,91.40
2023-02-16T00:26:58.496Z,91.40
2023-02-16T00:29:28.592Z,91.40
2023-02-16T00:31:59.933Z,91.40
2023-02-16T00:34:33.825Z,91.40
2023-02-16T00:37:03.825Z,91.40
2023-02-16T00:39:32.204Z,91.40
2023-02-16T00:42:03.073Z,91.40
2023-02-16T00:44:34.594Z,91.40
2023-02-16T00:47:17.609Z,91.40
2023-02-16T00:49:45.628Z,91.40
2023-02-16T00:52:29.111Z,91.30
2023-02-16T00:54:56.953Z,91.30
2023-02-16T00:57:25.906Z,91.30
2023-02-16T01:00:00.848Z,91.30
2023-02-16T01:02:30.580Z,91.30
2023-02-16T01:04:58.388Z,91.30
2023-02-16T01:07:43.908Z,91.30
2023-02-16T01:10:29.674Z,91.30
2023-02-16T01:12:57.555Z,91.30
2023-02-16T01:15:27.083Z,91.20
2023-02-16T01:17:56.691Z,91.20
2023-02-16T01:20:26.629Z,91.20
2023-02-16T01:22:54.490Z,91.20
2023-02-16T01:25:22.375Z,91.20
2023-02-16T01:27:50.308Z,91.20
2023-02-16T01:30:20.210Z,91.20
2023-02-16T01:32:51.515Z,91.30
2023-02-16T01:35:21.236Z,91.30
2023-02-16T01:37:49.260Z,91.30
2023-02-16T01:40:31.443Z,91.60
2023-02-16T01:43:05.399Z,91.30
2023-02-16T01:45:36.348Z,91.20
2023-02-16T01:48:06.973Z,91.30
2023-02-16T01:50:44.420Z,91.20
2023-02-16T01:53:21.298Z,91.30
2023-02-16T01:55:56.296Z,91.30
2023-02-16T01:58:32.440Z,91.30
2023-02-16T02:01:42.777Z,91.30
2023-02-16T02:04:38.085Z,91.30
2023-02-16T02:07:07.371Z,91.30
2023-02-16T02:09:40.194Z,91.40
2023-02-16T02:12:15.630Z,91.40
2023-02-16T02:14:43.621Z,91.30
2023-02-16T02:17:15.527Z,91.40
2023-02-16T02:19:51.973Z,91.40
2023-02-16T02:23:06.245Z,91.40
2023-02-16T02:26:05.603Z,91.70
2023-02-16T02:28:41.033Z,91.30
2023-02-16T02:31:15.872Z,91.30
2023-02-16T02:33:49.576Z,91.30
2023-02-16T02:36:28.457Z,91.30
2023-02-16T02:39:05.334Z,91.30
2023-02-16T02:41:57.310Z,91.20
2023-02-16T02:44:29.872Z,91.30
2023-02-16T02:46:58.200Z,91.20
2023-02-16T02:49:26.193Z,91.20
2023-02-16T02:51:53.970Z,91.20
2023-02-16T02:54:43.525Z,91.30
2023-02-16T02:57:34.416Z,91.30
2023-02-16T03:00:26.007Z,91.20
2023-02-16T03:02:59.277Z,91.30
2023-02-16T03:05:30.300Z,91.30
2023-02-16T03:08:14.208Z,91.30
2023-02-16T03:11:02.488Z,91.30
2023-02-16T03:13:36.327Z,91.30
2023-02-16T03:16:11.072Z,91.30
2023-02-16T03:18:59.195Z,91.30
2023-02-16T03:21:46.468Z,91.30
2023-02-16T03:24:35.393Z,91.30
2023-02-16T03:27:21.344Z,91.30
2023-02-16T03:29:50.925Z,91.30
2023-02-16T03:32:20.465Z,91.30
2023-02-16T03:34:48.404Z,91.30
2023-02-16T03:37:16.631Z,91.30
2023-02-16T03:40:02.418Z,91.20
2023-02-16T03:42:30.241Z,91.30
2023-02-16T03:44:58.343Z,91.30
2023-02-16T03:47:27.812Z,91.30
2023-02-16T03:49:55.571Z,91.30
2023-02-16T03:52:23.462Z,91.30
2023-02-16T03:54:51.172Z,91.30
2023-02-16T03:57:19.207Z,91.30
2023-02-16T03:59:47.087Z,91.30
2023-02-16T04:02:14.932Z,91.30
2023-02-16T04:04:44.383Z,91.30
2023-02-16T04:07:12.121Z,91.30
2023-02-16T04:09:40.152Z,91.30
2023-02-16T04:12:26.360Z,91.30
2023-02-16T04:14:54.053Z,91.30
2023-02-16T04:17:21.811Z,91.30
2023-02-16T04:19:50.911Z,91.30
2023-02-16T04:22:18.780Z,91.30
2023-02-16T04:24:46.567Z,91.30
2023-02-16T04:27:14.428Z,91.30
2023-02-16T04:29:42.259Z,91.40
2023-02-16T04:32:10.145Z,91.30
2023-02-16T04:34:38.072Z,91.40
2023-02-16T04:37:07.189Z,91.40
2023-02-16T04:39:36.980Z,91.30
2023-02-16T04:42:05.269Z,91.40
2023-02-16T04:44:33.980Z,91.30
2023-02-16T04:47:01.763Z,91.40
2023-02-16T04:49:29.633Z,91.30
2023-02-16T04:51:57.525Z,91.70
2023-02-16T04:54:26.755Z,91.40
2023-02-16T04:56:54.720Z,91.40
2023-02-16T04:59:22.513Z,91.30
2023-02-16T05:01:50.385Z,91.30
2023-02-16T05:04:18.499Z,91.30
2023-02-16T05:06:46.925Z,91.30
2023-02-16T05:09:14.774Z,91.30
2023-02-16T05:12:01.500Z,91.30
2023-02-16T05:14:43.467Z,91.30
2023-02-16T05:17:12.516Z,91.30
2023-02-16T05:19:40.988Z,91.40
2023-02-16T05:22:09.641Z,91.30
2023-02-16T05:24:38.483Z,91.30
2023-02-16T05:27:10.111Z,91.30
2023-02-16T05:29:38.092Z,91.30
2023-02-16T05:32:06.546Z,91.30
2023-02-16T05:34:34.402Z,91.30
2023-02-16T05:37:02.137Z,91.30
2023-02-16T05:39:30.033Z,91.30
2023-02-16T05:41:57.907Z,91.30
2023-02-16T05:44:27.369Z,91.30
2023-02-16T05:46:55.109Z,91.40
2023-02-16T05:49:23.049Z,91.40
2023-02-16T05:51:51.068Z,91.40
2023-02-16T05:54:18.988Z,91.40
2023-02-16T05:56:48.133Z,91.40
2023-02-16T05:59:17.426Z,91.40
2023-02-16T06:01:49.533Z,91.40
2023-02-16T06:04:20.064Z,91.40
2023-02-16T06:06:47.806Z,91.40
2023-02-16T06:09:15.615Z,91.30
2023-02-16T06:11:43.676Z,91.30
2023-02-16T06:14:13.190Z,91.30
2023-02-16T06:16:44.255Z,91.30
2023-02-16T06:19:14.410Z,91.30
2023-02-16T06:21:42.681Z,91.30
2023-02-16T06:24:13.150Z,91.30
2023-02-16T06:26:41.137Z,91.40
2023-02-16T06:29:09.917Z,91.40
2023-02-16T06:31:37.820Z,91.40
2023-02-16T06:34:06.512Z,91.30
2023-02-16T06:36:35.849Z,91.40
2023-02-16T06:39:04.169Z,91.40
2023-02-16T06:41:32.295Z,91.40
2023-02-16T06:44:00.711Z,91.40
2023-02-16T06:46:28.905Z,91.40
2023-02-16T06:48:56.866Z,91.40
2023-02-16T06:51:25.006Z,91.40
2023-02-16T06:53:54.228Z,91.40
2023-02-16T06:56:22.339Z,91.40
2023-02-16T06:58:50.141Z,91.40
2023-02-16T07:01:23.009Z,91.40
2023-02-16T07:03:51.488Z,91.50
2023-02-16T07:06:20.351Z,91.50
2023-02-16T07:08:48.239Z,91.50
2023-02-16T07:11:18.184Z,91.50
2023-02-16T07:13:46.235Z,91.60
2023-02-16T07:16:15.401Z,91.60
2023-02-16T07:18:43.431Z,91.60
2023-02-16T07:21:11.188Z,91.60
2023-02-16T07:23:39.157Z,91.60
2023-02-16T07:26:07.482Z,91.60
2023-02-16T07:28:36.562Z,91.70
2023-02-16T07:31:08.894Z,91.70
2023-02-16T07:33:37.361Z,91.70
2023-02-16T07:36:05.821Z,91.70
2023-02-16T07:38:33.722Z,91.70
2023-02-16T07:41:01.589Z,91.70
2023-02-16T07:43:29.376Z,91.60
2023-02-16T07:45:58.477Z,91.70
2023-02-16T07:48:26.332Z,91.70
2023-02-16T07:50:54.125Z,91.70
2023-02-16T07:53:21.979Z,91.70
2023-02-16T07:55:49.745Z,91.80
2023-02-16T07:58:27.433Z,91.80
2023-02-16T08:00:58.099Z,91.80
2023-02-16T08:03:25.917Z,91.90
2023-02-16T08:05:54.008Z,91.90
2023-02-16T08:08:21.745Z,91.80
2023-02-16T08:10:49.606Z,91.90
2023-02-16T08:13:17.351Z,91.90
2023-02-16T08:15:45.464Z,91.90
2023-02-16T08:18:15.175Z,91.90
2023-02-16T08:21:01.412Z,91.90
2023-02-16T08:23:30.751Z,92.10
2023-02-16T08:25:59.567Z,92.00
2023-02-16T08:28:28.950Z,92.00
2023-02-16T08:30:56.913Z,92.00
2023-02-16T08:33:26.159Z,92.00
2023-02-16T08:35:54.271Z,92.00
2023-02-16T08:38:22.720Z,92.00
2023-02-16T08:40:51.025Z,92.00
2023-02-16T08:43:18.796Z,92.00
2023-02-16T08:45:47.501Z,92.00
2023-02-16T08:48:16.547Z,92.00
2023-02-16T08:50:53.291Z,92.30
2023-02-16T08:53:23.009Z,92.00
2023-02-16T08:55:55.773Z,92.00
2023-02-16T08:58:24.380Z,92.00
2023-02-16T09:00:52.120Z,92.00
2023-02-16T09:03:20.227Z,92.00
2023-02-16T09:05:51.170Z,91.90
2023-02-16T09:08:19.200Z,92.00
2023-02-16T09:10:47.239Z,92.00
2023-02-16T09:13:16.326Z,92.00
2023-02-16T09:15:44.843Z,92.00
2023-02-16T09:18:13.969Z,92.00
2023-02-16T09:20:45.617Z,92.00
2023-02-16T09:23:15.953Z,92.00
2023-02-16T09:25:43.764Z,92.00
2023-02-16T09:28:11.862Z,92.00
2023-02-16T09:30:40.295Z,92.00
2023-02-16T09:33:08.360Z,92.00
2023-02-16T09:35:36.346Z,92.00
2023-02-16T09:38:04.360Z,92.00
2023-02-16T09:40:33.435Z,92.00
2023-02-16T09:43:08.988Z,92.10
2023-02-16T09:45:42.615Z,92.10
2023-02-16T09:48:19.912Z,92.10
2023-02-16T09:50:54.367Z,92.20
2023-02-16T09:53:27.032Z,92.20
2023-02-16T09:56:04.279Z,92.20
2023-02-16T09:58:40.215Z,92.20
2023-02-16T10:01:18.253Z,92.20
2023-02-16T10:03:55.871Z,92.30
2023-02-16T10:06:37.448Z,92.30
2023-02-16T10:09:09.616Z,92.30
2023-02-16T10:11:46.842Z,92.30
2023-02-16T10:14:23.089Z,92.30
2023-02-16T10:16:56.332Z,92.20
2023-02-16T10:19:28.861Z,92.20
2023-02-16T10:22:00.591Z,92.20
2023-02-16T10:24:32.393Z,92.20
2023-02-16T10:27:07.464Z,92.10
2023-02-16T10:29:35.661Z,92.20
2023-02-16T10:32:16.549Z,92.20
2023-02-16T10:34:50.411Z,92.30
2023-02-16T10:37:34.656Z,92.30
2023-02-16T10:40:20.107Z,92.40
2023-02-16T10:42:57.013Z,92.40
2023-02-16T10:45:32.181Z,92.40
2023-02-16T10:48:00.338Z,92.70
2023-02-16T10:50:33.329Z,92.40
2023-02-16T10:53:10.441Z,92.50
2023-02-16T10:55:38.679Z,92.50
2023-02-16T10:58:18.517Z,92.50
2023-02-16T11:00:52.704Z,92.60
2023-02-16T11:03:25.346Z,92.50
2023-02-16T11:05:54.737Z,92.60
2023-02-16T11:08:24.092Z,92.60
2023-02-16T11:10:53.922Z,92.60
2023-02-16T11:13:32.892Z,92.60
2023-02-16T11:16:05.973Z,92.60
2023-02-16T11:18:39.939Z,92.60
2023-02-16T11:21:10.108Z,92.50
2023-02-16T11:23:40.455Z,92.50
2023-02-16T11:26:22.372Z,92.50
2023-02-16T11:28:52.690Z,92.50
2023-02-16T11:31:24.877Z,92.50
2023-02-16T11:33:58.700Z,92.60
2023-02-16T11:36:32.644Z,92.60
2023-02-16T11:39:03.908Z,92.60
2023-02-16T11:41:34.551Z,92.60
2023-02-16T11:44:04.805Z,92.60
2023-02-16T11:46:41.522Z,92.60
2023-02-16T11:49:32.166Z,92.60
2023-02-16T11:52:00.043Z,92.60
2023-02-16T11:54:28.652Z,92.60
2023-02-16T11:57:05.333Z,92.50
2023-02-16T11:59:37.670Z,92.50
2023-02-16T12:02:50.721Z,92.50
2023-02-16T12:05:27.921Z,92.50
2023-02-16T12:08:20.062Z,92.50
2023-02-16T12:11:03.963Z,92.50
2023-02-16T12:13:42.068Z,92.40
2023-02-16T12:16:23.180Z,92.40
2023-02-16T12:19:07.197Z,92.40
2023-02-16T12:21:39.131Z,92.40
2023-02-16T12:24:18.181Z,92.50
2023-02-16T12:26:51.884Z,92.50
2023-02-16T12:29:34.184Z,92.50
2023-02-16T12:32:13.214Z,92.40
2023-02-16T12:34:54.483Z,92.40
2023-02-16T12:37:30.809Z,92.40
2023-02-16T12:40:10.568Z,92.40
2023-02-16T12:42:50.891Z,92.40
2023-02-16T12:45:22.285Z,92.40
2023-02-16T12:47:56.695Z,92.50
2023-02-16T12:50:28.188Z,92.50
2023-02-16T12:52:59.814Z,92.50
2023-02-16T12:55:31.919Z,92.50
2023-02-16T12:58:10.543Z,92.50
2023-02-16T13:00:47.740Z,92.50
2023-02-16T13:03:27.902Z,92.50
2023-02-16T13:06:06.269Z,92.50
2023-02-16T13:08:40.639Z,92.40
2023-02-16T13:11:15.772Z,92.50
2023-02-16T13:13:46.694Z,92.50
2023-02-16T13:16:29.511Z,92.50
2023-02-16T13:18:59.898Z,92.50
2023-02-16T13:21:51.394Z,92.50
2023-02-16T13:24:27.256Z,92.40
2023-02-16T13:27:08.074Z,92.50
2023-02-16T13:29:52.416Z,92.50
2023-02-16T13:33:02.319Z,92.50
2023-02-16T13:35:54.887Z,92.60
2023-02-16T13:39:09.382Z,92.60
2023-02-16T13:41:53.321Z,92.60
2023-02-16T13:44:23.720Z,92.60
2023-02-16T13:46:53.901Z,92.60
2023-02-16T13:49:33.382Z,92.60
2023-02-16T13:52:03.715Z,92.60
2023-02-16T13:54:34.402Z,92.60
2023-02-16T13:57:04.405Z,92.60
2023-02-16T14:00:01.185Z,92.60
2023-02-16T14:02:55.872Z,92.50
2023-02-16T14:05:33.796Z,92.50
2023-02-16T14:08:23.787Z,92.70
2023-02-16T14:11:04.006Z,92.60
2023-02-16T14:13:34.123Z,92.50
2023-02-16T14:16:08.623Z,92.50
2023-02-16T14:18:43.080Z,92.60
2023-02-16T14:21:20.757Z,92.50
2023-02-16T14:23:57.865Z,92.50
2023-02-16T14:26:26.434Z,92.50
2023-02-16T14:29:09.433Z,92.40
2023-02-16T14:31:45.458Z,92.40
2023-02-16T14:34:21.672Z,92.40
2023-02-16T14:37:27.726Z,92.70
2023-02-16T14:40:08.241Z,92.40
2023-02-16T14:42:37.856Z,92.40
2023-02-16T14:45:20.822Z,92.50
2023-02-16T14:47:59.577Z,92.40
2023-02-16T14:50:44.947Z,92.40
2023-02-16T14:53:43.914Z,92.40
2023-02-16T14:56:38.052Z,92.40
2023-02-16T14:59:13.573Z,92.40
2023-02-16T15:01:43.343Z,92.40
2023-02-16T15:04:12.118Z,92.40
2023-02-16T15:06:42.696Z,92.40
2023-02-16T15:09:17.776Z,92.40
2023-02-16T15:12:10.142Z,92.40
2023-02-16T15:14:43.818Z,92.40
2023-02-16T15:17:17.602Z,92.30
2023-02-16T15:19:45.655Z,92.30
2023-02-16T15:22:21.444Z,92.30
2023-02-16T15:25:00.373Z,92.40
2023-02-16T15:27:29.914Z,92.40
2023-02-16T15:30:12.103Z,92.40
2023-02-16T15:32:41.084Z,92.30
2023-02-16T15:35:14.680Z,92.30
2023-02-16T15:37:42.445Z,92.30
2023-02-16T15:40:25.457Z,92.30
2023-02-16T15:42:56.772Z,92.30
2023-02-16T15:45:30.846Z,92.30
2023-02-16T15:48:16.150Z,92.30
2023-02-16T15:50:45.207Z,92.30
2023-02-16T15:53:14.455Z,92.30
2023-02-16T15:55:47.352Z,92.30
2023-02-16T15:58:17.052Z,92.30
2023-02-16T16:00:47.723Z,92.30
2023-02-16T16:03:18.258Z,92.30
2023-02-16T16:06:03.570Z,92.30
2023-02-16T16:08:31.984Z,92.20
2023-02-16T16:10:59.891Z,92.20
2023-02-16T16:13:31.774Z,92.30
2023-02-16T16:16:02.099Z,92.30
2023-02-16T16:18:46.088Z,92.30
2023-02-16T16:21:18.821Z,92.30
2023-02-16T16:24:11.733Z,92.30
2023-02-16T16:26:53.183Z,92.30
2023-02-16T16:29:41.140Z,92.30
2023-02-16T16:32:19.843Z,92.30
2023-02-16T16:34:47.958Z,92.30
2023-02-16T16:37:27.513Z,92.20
2023-02-16T16:40:07.537Z,92.20
2023-02-16T16:42:39.066Z,92.20
2023-02-16T16:45:34.366Z,92.20
2023-02-16T16:48:08.184Z,92.20
2023-02-16T16:50:39.785Z,92.20
2023-02-16T16:53:51.785Z,92.20
2023-02-16T16:56:20.253Z,92.20
2023-02-16T16:58:51.175Z,92.20
2023-02-16T17:01:21.230Z,92.20
2023-02-16T17:03:49.043Z,92.20
2023-02-16T17:06:20.752Z,92.20
2023-02-16T17:08:48.710Z,92.20
2023-02-16T17:11:25.536Z,92.20
2023-02-16T17:13:54.737Z,92.20
2023-02-16T17:16:29.330Z,92.20
2023-02-16T17:18:57.271Z,92.20
2023-02-16T17:21:25.328Z,92.20
2023-02-16T17:23:53.734Z,92.20
2023-02-16T17:26:22.167Z,92.20
2023-02-16T17:28:51.030Z,92.20
2023-02-16T17:31:19.023Z,92.20
2023-02-16T17:33:48.385Z,92.20
2023-02-16T17:36:17.894Z,92.20
2023-02-16T17:38:46.203Z,92.20
2023-02-16T17:41:20.980Z,92.20
2023-02-16T17:43:48.856Z,92.20
2023-02-16T17:46:17.887Z,92.20
2023-02-16T17:48:46.297Z,92.20
2023-02-16T17:51:17.310Z,92.20
2023-02-16T17:53:45.283Z,92.20
2023-02-16T17:56:14.793Z,92.20
2023-02-16T17:58:43.140Z,92.20
2023-02-16T18:01:13.786Z,92.20
2023-02-16T18:03:41.660Z,92.20
2023-02-16T18:06:12.590Z,92.20
2023-02-16T18:08:41.993Z,92.20
2023-02-16T18:11:09.726Z,92.20
2023-02-16T18:13:38.211Z,92.20
2023-02-16T18:16:07.260Z,92.20
2023-02-16T18:18:36.734Z,92.20
2023-02-16T18:21:04.933Z,92.20
2023-02-16T18:23:32.861Z,92.20
2023-02-16T18:26:02.020Z,92.20
2023-02-16T18:28:32.423Z,92.20
2023-02-16T18:31:00.515Z,92.20
2023-02-16T18:33:28.978Z,92.30
2023-02-16T18:35:58.090Z,92.20
2023-02-16T18:38:26.038Z,92.20
2023-02-16T18:40:55.401Z,92.20
2023-02-16T18:43:28.249Z,92.20
2023-02-16T18:45:56.267Z,92.20
2023-02-16T18:48:24.287Z,92.20
2023-02-16T18:50:52.297Z,92.30
2023-02-16T18:53:20.175Z,92.20
2023-02-16T18:55:47.917Z,92.20
2023-02-16T18:58:16.045Z,92.20
2023-02-16T19:00:45.442Z,92.20
2023-02-16T19:03:13.515Z,92.20
2023-02-16T19:05:41.701Z,92.20
2023-02-16T19:08:09.521Z,92.20
2023-02-16T19:10:37.408Z,92.20
2023-02-16T19:13:07.310Z,92.20
2023-02-16T19:15:35.888Z,92.20
2023-02-16T19:18:05.762Z,92.20
2023-02-16T19:20:33.692Z,92.20
2023-02-16T19:23:01.477Z,92.20
2023-02-16T19:25:29.744Z,92.20
2023-02-16T19:27:58.102Z,92.20
2023-02-16T19:30:25.944Z,92.20
2023-02-16T19:32:53.969Z,92.20
2023-02-16T19:35:23.040Z,92.20
2023-02-16T19:37:51.674Z,92.20
2023-02-16T19:40:19.784Z,92.20
2023-02-16T19:42:47.826Z,92.20
2023-02-16T19:45:15.693Z,92.20
2023-02-16T19:47:43.457Z,92.20
2023-02-16T19:50:11.661Z,92.20
2023-02-16T19:52:41.045Z,92.20
2023-02-16T19:55:11.373Z,92.20
2023-02-16T19:57:39.334Z,92.20
2023-02-16T20:00:11.684Z,92.20
2023-02-16T20:02:39.865Z,92.20
2023-02-16T20:05:09.652Z,92.30
2023-02-16T20:07:37.686Z,92.30
2023-02-16T20:10:08.372Z,92.30
2023-02-16T20:12:36.204Z,92.30
2023-02-16T20:15:04.271Z,92.30
2023-02-16T20:17:32.302Z,92.30
2023-02-16T20:20:00.705Z,92.30
2023-02-16T20:22:28.828Z,92.30
2023-02-16T20:24:56.574Z,92.30
2023-02-16T20:27:27.339Z,92.30
2023-02-16T20:29:55.483Z,92.30
2023-02-16T20:32:25.514Z,92.30
2023-02-16T20:34:53.619Z,92.30
2023-02-16T20:37:21.721Z,92.30
2023-02-16T20:39:49.744Z,92.30
2023-02-16T20:42:17.517Z,92.30
2023-02-16T20:44:46.635Z,92.30
2023-02-16T20:47:14.589Z,92.30
2023-02-16T20:49:42.598Z,92.30
2023-02-16T20:52:10.649Z,92.30
2023-02-16T20:54:38.577Z,92.30
2023-02-16T20:57:08.203Z,92.30
2023-02-16T20:59:40.893Z,92.30
2023-02-16T21:02:12.259Z,92.30
2023-02-16T21:04:40.686Z,92.30
2023-02-16T21:07:09.039Z,92.30
2023-02-16T21:09:36.926Z,92.20
2023-02-16T21:12:04.944Z,92.30
2023-02-16T21:14:32.885Z,92.30
2023-02-16T21:17:00.673Z,92.30
2023-02-16T21:19:29.794Z,92.30
2023-02-16T21:21:57.560Z,92.30
2023-02-16T21:24:25.374Z,92.30
2023-02-16T21:26:53.135Z,92.30
2023-02-16T21:29:20.910Z,92.30
2023-02-16T21:31:48.673Z,92.30
2023-02-16T21:34:16.500Z,92.30
2023-02-16T21:36:45.751Z,92.30
2023-02-16T21:39:13.654Z,92.30
2023-02-16T21:41:40.461Z,92.30
2023-02-16T21:44:10.177Z,92.30
2023-02-16T21:46:39.474Z,92.30
2023-02-16T21:49:07.991Z,92.30
2023-02-16T21:51:37.896Z,92.30
2023-02-16T21:54:08.608Z,92.30
2023-02-16T21:56:37.307Z,92.30
2023-02-16T21:59:06.043Z,92.30
2023-02-16T22:01:36.112Z,92.30
2023-02-16T22:04:04.629Z,92.30
2023-02-16T22:06:35.618Z,92.60
2023-02-16T22:09:08.154Z,92.30
2023-02-16T22:11:36.286Z,92.30
2023-02-16T22:14:04.577Z,92.30
2023-02-16T22:16:34.415Z,92.30
2023-02-16T22:19:07.093Z,92.30
2023-02-16T22:21:36.610Z,92.30
2023-02-16T22:24:04.841Z,92.30
2023-02-16T22:26:35.988Z,92.30
2023-02-16T22:29:06.175Z,92.30
2023-02-16T22:31:34.826Z,92.30
2023-02-16T22:34:05.412Z,92.30
2023-02-16T22:36:33.475Z,92.30
2023-02-16T22:39:01.235Z,92.30
2023-02-16T22:41:29.407Z,92.30
2023-02-16T22:43:59.980Z,92.30
2023-02-16T22:46:29.981Z,92.30
2023-02-16T22:48:59.298Z,92.40
2023-02-16T22:51:29.711Z,92.40
2023-02-16T22:54:02.155Z,92.40
2023-02-16T22:56:30.703Z,92.40
2023-02-16T22:59:02.356Z,92.40
2023-02-16T23:01:31.107Z,92.40
2023-02-16T23:04:01.393Z,92.40
2023-02-16T23:06:31.622Z,92.50
2023-02-16T23:09:02.001Z,92.60
2023-02-16T23:11:29.891Z,92.50
2023-02-16T23:13:59.184Z,92.50
2023-02-16T23:16:28.534Z,92.50
2023-02-16T23:18:56.961Z,92.50
2023-02-16T23:21:27.177Z,92.50
2023-02-16T23:23:56.178Z,92.50
2023-02-16T23:26:26.142Z,92.50
2023-02-16T23:28:55.955Z,92.50
2023-02-16T23:31:25.284Z,92.50
2023-02-16T23:33:53.414Z,92.50
2023-02-16T23:36:21.489Z,92.40
2023-02-16T23:38:49.571Z,92.40
2023-02-16T23:41:17.484Z,92.40
2023-02-16T23:43:45.352Z,92.40
2023-02-16T23:46:13.285Z,92.40
2023-02-16T23:48:42.612Z,92.40
2023-02-16T23:51:12.076Z,92.40
2023-02-16T23:53:40.208Z,92.40
2023-02-16T23:56:09.894Z,92.40
2023-02-16T23:58:41.382Z,92.40
